sensor_id;sensor_type;location;lat;lon;timestamp;temperature;humidity
780;DHT22;373;49.342;8.146;2022-07-15T00:00:05;20.50;69.10
780;DHT22;373;49.342;8.146;2022-07-15T00:02:33;20.50;69.60
780;DHT22;373;49.342;8.146;2022-07-15T00:05:00;20.50;69.90
780;DHT22;373;49.342;8.146;2022-07-15T00:07:27;20.30;70.90
780;DHT22;373;49.342;8.146;2022-07-15T00:09:54;20.20;71.00
780;DHT22;373;49.342;8.146;2022-07-15T00:12:41;20.00;72.00
780;DHT22;373;49.342;8.146;2022-07-15T00:15:09;19.90;72.50
780;DHT22;373;49.342;8.146;2022-07-15T00:17:36;19.90;72.50
780;DHT22;373;49.342;8.146;2022-07-15T00:20:05;19.90;73.00
780;DHT22;373;49.342;8.146;2022-07-15T00:22:32;19.90;73.20
780;DHT22;373;49.342;8.146;2022-07-15T00:24:59;19.80;73.90
780;DHT22;373;49.342;8.146;2022-07-15T00:27:26;19.70;74.70
780;DHT22;373;49.342;8.146;2022-07-15T00:29:55;19.70;74.70
780;DHT22;373;49.342;8.146;2022-07-15T00:32:23;19.40;76.10
780;DHT22;373;49.342;8.146;2022-07-15T00:34:50;19.40;76.30
780;DHT22;373;49.342;8.146;2022-07-15T00:37:22;19.20;77.50
780;DHT22;373;49.342;8.146;2022-07-15T00:40:13;19.10;78.30
780;DHT22;373;49.342;8.146;2022-07-15T00:42:46;19.00;78.70
780;DHT22;373;49.342;8.146;2022-07-15T00:45:22;19.00;79.60
780;DHT22;373;49.342;8.146;2022-07-15T00:47:56;19.10;79.60
780;DHT22;373;49.342;8.146;2022-07-15T00:50:31;19.20;79.20
780;DHT22;373;49.342;8.146;2022-07-15T00:53:03;19.30;78.80
780;DHT22;373;49.342;8.146;2022-07-15T00:55:40;19.50;79.10
780;DHT22;373;49.342;8.146;2022-07-15T00:58:15;19.50;78.90
780;DHT22;373;49.342;8.146;2022-07-15T01:00:56;19.40;79.30
780;DHT22;373;49.342;8.146;2022-07-15T01:03:32;19.30;80.00
780;DHT22;373;49.342;8.146;2022-07-15T01:06:03;19.30;79.90
780;DHT22;373;49.342;8.146;2022-07-15T01:08:36;19.30;80.50
780;DHT22;373;49.342;8.146;2022-07-15T01:11:07;19.20;80.70
780;DHT22;373;49.342;8.146;2022-07-15T01:13:34;19.10;80.80
780;DHT22;373;49.342;8.146;2022-07-15T01:16:05;19.10;81.20
780;DHT22;373;49.342;8.146;2022-07-15T01:18:34;18.90;82.20
780;DHT22;373;49.342;8.146;2022-07-15T01:21:07;18.80;83.10
780;DHT22;373;49.342;8.146;2022-07-15T01:23:39;18.70;83.30
780;DHT22;373;49.342;8.146;2022-07-15T01:26:16;18.80;83.00
780;DHT22;373;49.342;8.146;2022-07-15T01:28:44;18.70;83.50
780;DHT22;373;49.342;8.146;2022-07-15T01:31:13;18.90;83.80
780;DHT22;373;49.342;8.146;2022-07-15T01:33:42;18.80;84.00
780;DHT22;373;49.342;8.146;2022-07-15T01:36:10;18.90;83.90
780;DHT22;373;49.342;8.146;2022-07-15T01:38:46;18.70;83.90
780;DHT22;373;49.342;8.146;2022-07-15T01:41:14;18.70;84.00
780;DHT22;373;49.342;8.146;2022-07-15T01:43:42;18.60;84.70
780;DHT22;373;49.342;8.146;2022-07-15T01:46:12;18.60;85.00
780;DHT22;373;49.342;8.146;2022-07-15T01:48:40;18.60;85.60
780;DHT22;373;49.342;8.146;2022-07-15T01:51:44;18.50;85.40
780;DHT22;373;49.342;8.146;2022-07-15T01:54:12;18.30;85.70
780;DHT22;373;49.342;8.146;2022-07-15T01:56:40;18.10;87.00
780;DHT22;373;49.342;8.146;2022-07-15T01:59:08;18.10;87.60
780;DHT22;373;49.342;8.146;2022-07-15T02:01:37;18.00;88.30
780;DHT22;373;49.342;8.146;2022-07-15T02:04:14;18.10;88.20
780;DHT22;373;49.342;8.146;2022-07-15T02:06:47;18.10;88.00
780;DHT22;373;49.342;8.146;2022-07-15T02:09:17;18.00;88.60
780;DHT22;373;49.342;8.146;2022-07-15T02:11:47;18.00;88.40
780;DHT22;373;49.342;8.146;2022-07-15T02:14:23;17.90;88.70
780;DHT22;373;49.342;8.146;2022-07-15T02:16:58;17.70;89.80
780;DHT22;373;49.342;8.146;2022-07-15T02:19:43;17.70;90.20
780;DHT22;373;49.342;8.146;2022-07-15T02:22:16;17.60;90.60
780;DHT22;373;49.342;8.146;2022-07-15T02:24:43;17.40;90.80
780;DHT22;373;49.342;8.146;2022-07-15T02:27:18;17.50;91.00
780;DHT22;373;49.342;8.146;2022-07-15T02:29:47;17.50;90.60
780;DHT22;373;49.342;8.146;2022-07-15T02:32:18;17.60;90.40
780;DHT22;373;49.342;8.146;2022-07-15T02:34:48;17.70;90.50
780;DHT22;373;49.342;8.146;2022-07-15T02:37:19;17.60;90.40
780;DHT22;373;49.342;8.146;2022-07-15T02:39:53;17.60;90.50
780;DHT22;373;49.342;8.146;2022-07-15T02:42:20;17.50;90.60
780;DHT22;373;49.342;8.146;2022-07-15T02:44:48;17.40;91.30
780;DHT22;373;49.342;8.146;2022-07-15T02:47:18;17.30;91.60
780;DHT22;373;49.342;8.146;2022-07-15T02:49:48;17.40;91.60
780;DHT22;373;49.342;8.146;2022-07-15T02:52:16;17.40;91.50
780;DHT22;373;49.342;8.146;2022-07-15T02:54:53;17.20;91.90
780;DHT22;373;49.342;8.146;2022-07-15T02:57:26;17.20;92.10
780;DHT22;373;49.342;8.146;2022-07-15T02:59:58;17.30;92.20
780;DHT22;373;49.342;8.146;2022-07-15T03:02:38;17.00;92.70
780;DHT22;373;49.342;8.146;2022-07-15T03:05:43;16.80;93.30
780;DHT22;373;49.342;8.146;2022-07-15T03:08:22;16.80;93.60
780;DHT22;373;49.342;8.146;2022-07-15T03:10:59;16.70;93.80
780;DHT22;373;49.342;8.146;2022-07-15T03:13:39;16.70;94.00
780;DHT22;373;49.342;8.146;2022-07-15T03:16:09;16.70;94.20
780;DHT22;373;49.342;8.146;2022-07-15T03:18:38;16.60;94.40
780;DHT22;373;49.342;8.146;2022-07-15T03:21:05;16.70;94.00
780;DHT22;373;49.342;8.146;2022-07-15T03:23:32;16.70;94.10
780;DHT22;373;49.342;8.146;2022-07-15T03:26:01;16.60;94.20
780;DHT22;373;49.342;8.146;2022-07-15T03:28:29;16.70;94.20
780;DHT22;373;49.342;8.146;2022-07-15T03:30:57;16.70;94.30
780;DHT22;373;49.342;8.146;2022-07-15T03:33:24;16.60;94.60
780;DHT22;373;49.342;8.146;2022-07-15T03:35:52;16.50;95.10
780;DHT22;373;49.342;8.146;2022-07-15T03:38:21;16.60;94.90
780;DHT22;373;49.342;8.146;2022-07-15T03:40:49;16.50;95.20
780;DHT22;373;49.342;8.146;2022-07-15T03:43:18;16.20;96.00
780;DHT22;373;49.342;8.146;2022-07-15T03:45:50;16.10;96.00
780;DHT22;373;49.342;8.146;2022-07-15T03:48:19;16.00;96.30
780;DHT22;373;49.342;8.146;2022-07-15T03:50:47;16.10;95.90
780;DHT22;373;49.342;8.146;2022-07-15T03:53:14;16.20;95.60
780;DHT22;373;49.342;8.146;2022-07-15T03:55:41;16.20;95.80
780;DHT22;373;49.342;8.146;2022-07-15T03:58:08;16.10;96.20
780;DHT22;373;49.342;8.146;2022-07-15T04:00:37;16.00;96.80
780;DHT22;373;49.342;8.146;2022-07-15T04:03:04;15.90;97.00
780;DHT22;373;49.342;8.146;2022-07-15T04:05:31;16.30;96.00
780;DHT22;373;49.342;8.146;2022-07-15T04:07:58;16.20;96.40
780;DHT22;373;49.342;8.146;2022-07-15T04:10:26;16.00;96.80
780;DHT22;373;49.342;8.146;2022-07-15T04:12:53;16.00;97.00
780;DHT22;373;49.342;8.146;2022-07-15T04:15:20;16.10;97.10
780;DHT22;373;49.342;8.146;2022-07-15T04:17:49;16.10;96.40
780;DHT22;373;49.342;8.146;2022-07-15T04:20:20;16.10;96.60
780;DHT22;373;49.342;8.146;2022-07-15T04:22:50;16.10;96.30
780;DHT22;373;49.342;8.146;2022-07-15T04:25:21;16.40;96.00
780;DHT22;373;49.342;8.146;2022-07-15T04:27:48;16.40;95.70
780;DHT22;373;49.342;8.146;2022-07-15T04:30:19;16.50;95.50
780;DHT22;373;49.342;8.146;2022-07-15T04:32:50;16.60;95.10
780;DHT22;373;49.342;8.146;2022-07-15T04:35:18;16.70;95.30
780;DHT22;373;49.342;8.146;2022-07-15T04:37:52;16.70;95.10
780;DHT22;373;49.342;8.146;2022-07-15T04:40:20;16.60;95.60
780;DHT22;373;49.342;8.146;2022-07-15T04:42:47;16.70;95.00
780;DHT22;373;49.342;8.146;2022-07-15T04:45:15;16.50;96.20
780;DHT22;373;49.342;8.146;2022-07-15T04:47:45;16.50;96.10
780;DHT22;373;49.342;8.146;2022-07-15T04:50:21;16.60;95.90
780;DHT22;373;49.342;8.146;2022-07-15T04:53:21;16.60;95.60
780;DHT22;373;49.342;8.146;2022-07-15T04:55:49;16.70;95.70
780;DHT22;373;49.342;8.146;2022-07-15T04:58:16;16.60;95.60
780;DHT22;373;49.342;8.146;2022-07-15T05:00:44;16.60;96.10
780;DHT22;373;49.342;8.146;2022-07-15T05:03:14;16.60;96.10
780;DHT22;373;49.342;8.146;2022-07-15T05:05:43;16.80;95.90
780;DHT22;373;49.342;8.146;2022-07-15T05:08:15;17.00;95.30
780;DHT22;373;49.342;8.146;2022-07-15T05:10:47;17.30;94.70
780;DHT22;373;49.342;8.146;2022-07-15T05:13:14;17.50;94.20
780;DHT22;373;49.342;8.146;2022-07-15T05:15:41;17.40;94.50
780;DHT22;373;49.342;8.146;2022-07-15T05:18:24;17.40;94.00
780;DHT22;373;49.342;8.146;2022-07-15T05:24:24;17.60;94.10
780;DHT22;373;49.342;8.146;2022-07-15T05:27:42;17.90;93.30
780;DHT22;373;49.342;8.146;2022-07-15T05:30:10;18.20;93.00
780;DHT22;373;49.342;8.146;2022-07-15T05:32:42;18.20;92.50
780;DHT22;373;49.342;8.146;2022-07-15T05:35:14;18.40;92.30
780;DHT22;373;49.342;8.146;2022-07-15T05:37:43;18.60;92.00
780;DHT22;373;49.342;8.146;2022-07-15T05:40:17;18.70;91.60
780;DHT22;373;49.342;8.146;2022-07-15T05:42:50;18.80;91.30
780;DHT22;373;49.342;8.146;2022-07-15T05:45:19;19.00;91.10
780;DHT22;373;49.342;8.146;2022-07-15T05:47:56;19.20;90.70
780;DHT22;373;49.342;8.146;2022-07-15T05:50:27;19.40;90.60
780;DHT22;373;49.342;8.146;2022-07-15T05:53:05;19.50;90.50
780;DHT22;373;49.342;8.146;2022-07-15T05:55:33;19.70;90.10
780;DHT22;373;49.342;8.146;2022-07-15T05:58:05;19.80;88.90
780;DHT22;373;49.342;8.146;2022-07-15T06:00:33;20.20;86.40
780;DHT22;373;49.342;8.146;2022-07-15T06:03:01;20.60;87.50
780;DHT22;373;49.342;8.146;2022-07-15T06:05:30;20.50;86.40
780;DHT22;373;49.342;8.146;2022-07-15T06:08:02;20.60;86.60
780;DHT22;373;49.342;8.146;2022-07-15T06:10:41;21.10;86.20
780;DHT22;373;49.342;8.146;2022-07-15T06:13:08;21.60;85.10
780;DHT22;373;49.342;8.146;2022-07-15T06:15:36;21.80;83.50
780;DHT22;373;49.342;8.146;2022-07-15T06:18:04;22.40;82.90
780;DHT22;373;49.342;8.146;2022-07-15T06:20:31;22.50;82.40
780;DHT22;373;49.342;8.146;2022-07-15T06:23:01;22.70;79.60
780;DHT22;373;49.342;8.146;2022-07-15T06:25:29;23.10;79.60
780;DHT22;373;49.342;8.146;2022-07-15T06:27:56;22.70;79.00
780;DHT22;373;49.342;8.146;2022-07-15T06:30:23;22.50;78.10
780;DHT22;373;49.342;8.146;2022-07-15T06:32:52;22.20;80.60
780;DHT22;373;49.342;8.146;2022-07-15T06:35:19;22.10;79.40
780;DHT22;373;49.342;8.146;2022-07-15T06:37:47;21.90;79.40
780;DHT22;373;49.342;8.146;2022-07-15T06:40:17;21.90;76.30
780;DHT22;373;49.342;8.146;2022-07-15T06:42:44;22.00;77.80
780;DHT22;373;49.342;8.146;2022-07-15T06:45:15;22.00;75.80
780;DHT22;373;49.342;8.146;2022-07-15T06:47:43;22.20;75.90
780;DHT22;373;49.342;8.146;2022-07-15T06:50:10;22.50;74.60
780;DHT22;373;49.342;8.146;2022-07-15T06:52:41;22.30;74.00
780;DHT22;373;49.342;8.146;2022-07-15T06:55:09;22.60;75.00
780;DHT22;373;49.342;8.146;2022-07-15T06:57:39;22.70;73.40
780;DHT22;373;49.342;8.146;2022-07-15T07:00:07;22.50;74.00
780;DHT22;373;49.342;8.146;2022-07-15T07:02:38;22.00;74.20
780;DHT22;373;49.342;8.146;2022-07-15T07:05:05;21.60;75.70
780;DHT22;373;49.342;8.146;2022-07-15T07:07:34;21.60;76.10
780;DHT22;373;49.342;8.146;2022-07-15T07:10:01;21.50;76.50
780;DHT22;373;49.342;8.146;2022-07-15T07:12:29;22.10;76.40
780;DHT22;373;49.342;8.146;2022-07-15T07:14:57;22.30;75.20
780;DHT22;373;49.342;8.146;2022-07-15T07:17:26;22.10;76.00
780;DHT22;373;49.342;8.146;2022-07-15T07:19:54;22.20;76.30
780;DHT22;373;49.342;8.146;2022-07-15T07:22:21;22.70;76.80
780;DHT22;373;49.342;8.146;2022-07-15T07:24:48;23.20;76.80
780;DHT22;373;49.342;8.146;2022-07-15T07:27:15;23.50;74.80
780;DHT22;373;49.342;8.146;2022-07-15T07:29:42;24.00;75.20
780;DHT22;373;49.342;8.146;2022-07-15T07:32:11;23.50;73.60
780;DHT22;373;49.342;8.146;2022-07-15T07:34:38;23.20;73.90
780;DHT22;373;49.342;8.146;2022-07-15T07:37:05;22.80;74.70
780;DHT22;373;49.342;8.146;2022-07-15T07:39:32;22.80;76.30
780;DHT22;373;49.342;8.146;2022-07-15T07:42:00;23.20;74.80
780;DHT22;373;49.342;8.146;2022-07-15T07:44:27;23.20;75.50
780;DHT22;373;49.342;8.146;2022-07-15T07:46:54;23.10;75.00
780;DHT22;373;49.342;8.146;2022-07-15T07:49:23;22.90;74.60
780;DHT22;373;49.342;8.146;2022-07-15T07:51:50;22.80;74.20
780;DHT22;373;49.342;8.146;2022-07-15T07:54:17;23.10;73.50
780;DHT22;373;49.342;8.146;2022-07-15T07:56:45;23.50;73.70
780;DHT22;373;49.342;8.146;2022-07-15T07:59:13;23.70;72.40
780;DHT22;373;49.342;8.146;2022-07-15T08:01:40;24.10;72.50
780;DHT22;373;49.342;8.146;2022-07-15T08:04:07;24.20;72.90
780;DHT22;373;49.342;8.146;2022-07-15T08:06:36;24.10;71.60
780;DHT22;373;49.342;8.146;2022-07-15T08:09:04;23.80;71.00
780;DHT22;373;49.342;8.146;2022-07-15T08:11:32;23.70;71.80
780;DHT22;373;49.342;8.146;2022-07-15T08:13:59;24.10;71.20
780;DHT22;373;49.342;8.146;2022-07-15T08:16:32;24.30;70.00
780;DHT22;373;49.342;8.146;2022-07-15T08:19:07;24.50;70.50
780;DHT22;373;49.342;8.146;2022-07-15T08:21:35;23.80;70.60
780;DHT22;373;49.342;8.146;2022-07-15T08:24:03;24.10;71.80
780;DHT22;373;49.342;8.146;2022-07-15T08:26:30;23.90;69.30
780;DHT22;373;49.342;8.146;2022-07-15T08:28:57;23.90;72.50
780;DHT22;373;49.342;8.146;2022-07-15T08:31:24;24.20;69.60
780;DHT22;373;49.342;8.146;2022-07-15T08:33:52;24.10;70.20
780;DHT22;373;49.342;8.146;2022-07-15T08:36:19;24.10;70.70
780;DHT22;373;49.342;8.146;2022-07-15T08:38:48;24.20;69.70
780;DHT22;373;49.342;8.146;2022-07-15T08:41:15;24.50;69.60
780;DHT22;373;49.342;8.146;2022-07-15T08:43:43;24.20;68.40
780;DHT22;373;49.342;8.146;2022-07-15T08:46:10;24.20;70.50
780;DHT22;373;49.342;8.146;2022-07-15T08:48:37;24.60;70.00
780;DHT22;373;49.342;8.146;2022-07-15T08:51:07;24.70;69.00
780;DHT22;373;49.342;8.146;2022-07-15T08:53:34;24.30;68.70
780;DHT22;373;49.342;8.146;2022-07-15T08:56:03;24.70;68.70
780;DHT22;373;49.342;8.146;2022-07-15T08:58:31;24.20;68.50
780;DHT22;373;49.342;8.146;2022-07-15T09:00:58;24.10;69.30
780;DHT22;373;49.342;8.146;2022-07-15T09:03:26;24.30;68.90
780;DHT22;373;49.342;8.146;2022-07-15T09:05:53;24.70;68.60
780;DHT22;373;49.342;8.146;2022-07-15T09:08:20;24.70;67.50
780;DHT22;373;49.342;8.146;2022-07-15T09:10:49;24.30;68.20
780;DHT22;373;49.342;8.146;2022-07-15T09:13:27;24.20;67.90
780;DHT22;373;49.342;8.146;2022-07-15T09:15:56;24.10;67.50
780;DHT22;373;49.342;8.146;2022-07-15T09:18:26;24.20;68.30
780;DHT22;373;49.342;8.146;2022-07-15T09:20:53;24.70;67.70
780;DHT22;373;49.342;8.146;2022-07-15T09:23:23;24.70;67.50
780;DHT22;373;49.342;8.146;2022-07-15T09:25:56;24.70;66.40
780;DHT22;373;49.342;8.146;2022-07-15T09:28:37;25.10;67.10
780;DHT22;373;49.342;8.146;2022-07-15T09:31:05;25.80;65.10
780;DHT22;373;49.342;8.146;2022-07-15T09:33:50;25.50;64.60
780;DHT22;373;49.342;8.146;2022-07-15T09:36:20;25.70;63.90
780;DHT22;373;49.342;8.146;2022-07-15T09:38:50;25.30;64.20
780;DHT22;373;49.342;8.146;2022-07-15T09:41:25;25.60;64.90
780;DHT22;373;49.342;8.146;2022-07-15T09:43:56;26.00;63.00
780;DHT22;373;49.342;8.146;2022-07-15T09:46:26;26.40;62.90
780;DHT22;373;49.342;8.146;2022-07-15T09:48:54;27.10;62.70
780;DHT22;373;49.342;8.146;2022-07-15T09:51:22;26.60;61.60
780;DHT22;373;49.342;8.146;2022-07-15T09:53:50;26.30;62.00
780;DHT22;373;49.342;8.146;2022-07-15T09:56:19;25.40;62.80
780;DHT22;373;49.342;8.146;2022-07-15T09:58:49;25.30;64.00
780;DHT22;373;49.342;8.146;2022-07-15T10:01:18;25.90;64.10
780;DHT22;373;49.342;8.146;2022-07-15T10:03:45;26.00;62.40
780;DHT22;373;49.342;8.146;2022-07-15T10:06:14;25.70;63.20
780;DHT22;373;49.342;8.146;2022-07-15T10:08:46;26.10;62.80
780;DHT22;373;49.342;8.146;2022-07-15T10:11:14;26.40;62.80
780;DHT22;373;49.342;8.146;2022-07-15T10:14:29;26.30;62.20
780;DHT22;373;49.342;8.146;2022-07-15T10:17:29;26.00;61.70
780;DHT22;373;49.342;8.146;2022-07-15T10:23:16;25.90;63.80
780;DHT22;373;49.342;8.146;2022-07-15T10:25:55;26.10;63.80
780;DHT22;373;49.342;8.146;2022-07-15T10:28:37;25.80;62.20
780;DHT22;373;49.342;8.146;2022-07-15T10:31:14;25.70;63.20
780;DHT22;373;49.342;8.146;2022-07-15T10:34:16;26.10;63.10
780;DHT22;373;49.342;8.146;2022-07-15T10:37:03;26.30;61.40
780;DHT22;373;49.342;8.146;2022-07-15T10:39:48;25.90;62.10
780;DHT22;373;49.342;8.146;2022-07-15T10:42:16;25.40;63.40
780;DHT22;373;49.342;8.146;2022-07-15T10:45:04;25.50;62.90
780;DHT22;373;49.342;8.146;2022-07-15T10:47:32;25.80;62.80
780;DHT22;373;49.342;8.146;2022-07-15T10:50:37;25.70;63.30
780;DHT22;373;49.342;8.146;2022-07-15T10:53:16;25.40;63.20
780;DHT22;373;49.342;8.146;2022-07-15T10:55:44;25.00;63.20
780;DHT22;373;49.342;8.146;2022-07-15T10:58:12;25.00;63.70
780;DHT22;373;49.342;8.146;2022-07-15T11:00:42;25.10;63.90
780;DHT22;373;49.342;8.146;2022-07-15T11:03:12;24.80;63.40
780;DHT22;373;49.342;8.146;2022-07-15T11:06:03;24.60;63.90
780;DHT22;373;49.342;8.146;2022-07-15T11:08:49;24.60;64.00
780;DHT22;373;49.342;8.146;2022-07-15T11:11:45;24.50;64.10
780;DHT22;373;49.342;8.146;2022-07-15T11:14:42;24.70;63.90
780;DHT22;373;49.342;8.146;2022-07-15T11:17:09;24.70;65.60
780;DHT22;373;49.342;8.146;2022-07-15T11:19:36;24.50;64.10
780;DHT22;373;49.342;8.146;2022-07-15T11:22:08;24.60;63.90
780;DHT22;373;49.342;8.146;2022-07-15T11:24:36;24.50;64.20
780;DHT22;373;49.342;8.146;2022-07-15T11:27:03;24.60;64.00
780;DHT22;373;49.342;8.146;2022-07-15T11:29:41;25.40;64.50
780;DHT22;373;49.342;8.146;2022-07-15T11:32:09;26.20;62.70
780;DHT22;373;49.342;8.146;2022-07-15T11:34:38;26.50;60.80
780;DHT22;373;49.342;8.146;2022-07-15T11:37:07;26.70;61.70
780;DHT22;373;49.342;8.146;2022-07-15T11:39:35;27.00;60.20
780;DHT22;373;49.342;8.146;2022-07-15T11:42:02;26.20;60.60
780;DHT22;373;49.342;8.146;2022-07-15T11:44:48;26.50;61.20
780;DHT22;373;49.342;8.146;2022-07-15T11:47:16;27.00;60.10
780;DHT22;373;49.342;8.146;2022-07-15T11:49:43;26.60;60.20
780;DHT22;373;49.342;8.146;2022-07-15T11:52:21;26.50;60.20
780;DHT22;373;49.342;8.146;2022-07-15T11:54:48;26.20;59.90
780;DHT22;373;49.342;8.146;2022-07-15T11:57:16;25.90;60.20
780;DHT22;373;49.342;8.146;2022-07-15T11:59:51;25.80;60.30
780;DHT22;373;49.342;8.146;2022-07-15T12:02:18;25.90;60.70
780;DHT22;373;49.342;8.146;2022-07-15T12:04:45;25.80;60.80
780;DHT22;373;49.342;8.146;2022-07-15T12:07:14;25.80;61.80
780;DHT22;373;49.342;8.146;2022-07-15T12:09:43;25.90;60.40
780;DHT22;373;49.342;8.146;2022-07-15T12:12:10;26.10;60.30
780;DHT22;373;49.342;8.146;2022-07-15T12:14:38;25.80;60.50
780;DHT22;373;49.342;8.146;2022-07-15T12:17:06;25.80;60.70
780;DHT22;373;49.342;8.146;2022-07-15T12:19:34;26.30;59.70
780;DHT22;373;49.342;8.146;2022-07-15T12:22:06;26.10;60.30
780;DHT22;373;49.342;8.146;2022-07-15T12:24:41;26.40;59.90
780;DHT22;373;49.342;8.146;2022-07-15T12:27:10;26.10;59.00
780;DHT22;373;49.342;8.146;2022-07-15T12:29:38;25.60;60.30
780;DHT22;373;49.342;8.146;2022-07-15T12:32:07;25.40;60.70
780;DHT22;373;49.342;8.146;2022-07-15T12:34:51;25.10;60.40
780;DHT22;373;49.342;8.146;2022-07-15T12:37:20;25.40;60.60
780;DHT22;373;49.342;8.146;2022-07-15T12:39:58;25.50;60.50
780;DHT22;373;49.342;8.146;2022-07-15T12:42:25;25.80;61.00
780;DHT22;373;49.342;8.146;2022-07-15T12:45:07;26.10;59.90
780;DHT22;373;49.342;8.146;2022-07-15T12:47:35;26.00;59.00
780;DHT22;373;49.342;8.146;2022-07-15T12:50:04;26.10;60.60
780;DHT22;373;49.342;8.146;2022-07-15T12:52:33;26.00;59.90
780;DHT22;373;49.342;8.146;2022-07-15T12:55:14;26.00;59.10
780;DHT22;373;49.342;8.146;2022-07-15T12:57:42;26.00;60.00
780;DHT22;373;49.342;8.146;2022-07-15T13:00:13;25.70;60.20
780;DHT22;373;49.342;8.146;2022-07-15T13:03:05;26.00;60.30
780;DHT22;373;49.342;8.146;2022-07-15T13:05:35;25.80;60.40
780;DHT22;373;49.342;8.146;2022-07-15T13:08:04;25.70;60.90
780;DHT22;373;49.342;8.146;2022-07-15T13:10:34;25.80;59.60
780;DHT22;373;49.342;8.146;2022-07-15T13:13:03;25.90;60.00
780;DHT22;373;49.342;8.146;2022-07-15T13:15:30;25.70;60.80
780;DHT22;373;49.342;8.146;2022-07-15T13:17:58;25.30;59.80
780;DHT22;373;49.342;8.146;2022-07-15T13:20:25;25.20;60.50
780;DHT22;373;49.342;8.146;2022-07-15T13:22:52;25.30;60.50
780;DHT22;373;49.342;8.146;2022-07-15T13:25:19;25.40;60.00
780;DHT22;373;49.342;8.146;2022-07-15T13:27:48;25.60;59.40
780;DHT22;373;49.342;8.146;2022-07-15T13:30:15;25.90;59.00
780;DHT22;373;49.342;8.146;2022-07-15T13:32:43;25.90;59.00
780;DHT22;373;49.342;8.146;2022-07-15T13:35:11;25.90;58.80
780;DHT22;373;49.342;8.146;2022-07-15T13:37:39;26.10;58.00
780;DHT22;373;49.342;8.146;2022-07-15T13:40:08;26.40;59.20
780;DHT22;373;49.342;8.146;2022-07-15T13:42:36;26.00;58.30
780;DHT22;373;49.342;8.146;2022-07-15T13:45:06;25.70;58.90
780;DHT22;373;49.342;8.146;2022-07-15T13:47:34;26.00;59.80
780;DHT22;373;49.342;8.146;2022-07-15T13:50:02;25.80;58.30
780;DHT22;373;49.342;8.146;2022-07-15T13:52:49;25.80;58.90
780;DHT22;373;49.342;8.146;2022-07-15T13:55:17;25.90;58.30
780;DHT22;373;49.342;8.146;2022-07-15T13:57:45;26.10;58.30
780;DHT22;373;49.342;8.146;2022-07-15T14:00:16;26.20;58.60
780;DHT22;373;49.342;8.146;2022-07-15T14:02:44;26.20;57.80
780;DHT22;373;49.342;8.146;2022-07-15T14:05:12;26.10;57.60
780;DHT22;373;49.342;8.146;2022-07-15T14:07:40;26.10;57.50
780;DHT22;373;49.342;8.146;2022-07-15T14:10:08;25.80;57.10
780;DHT22;373;49.342;8.146;2022-07-15T14:12:36;25.50;57.60
780;DHT22;373;49.342;8.146;2022-07-15T14:15:04;25.70;58.10
780;DHT22;373;49.342;8.146;2022-07-15T14:17:32;25.80;58.30
780;DHT22;373;49.342;8.146;2022-07-15T14:20:00;26.10;57.40
780;DHT22;373;49.342;8.146;2022-07-15T14:22:27;26.30;57.00
780;DHT22;373;49.342;8.146;2022-07-15T14:24:56;26.40;56.70
780;DHT22;373;49.342;8.146;2022-07-15T14:27:23;26.10;56.60
780;DHT22;373;49.342;8.146;2022-07-15T14:29:51;25.80;56.80
780;DHT22;373;49.342;8.146;2022-07-15T14:32:18;26.00;56.70
780;DHT22;373;49.342;8.146;2022-07-15T14:34:50;26.00;55.50
780;DHT22;373;49.342;8.146;2022-07-15T14:37:17;25.90;56.00
780;DHT22;373;49.342;8.146;2022-07-15T14:39:44;25.80;55.60
780;DHT22;373;49.342;8.146;2022-07-15T14:42:11;26.10;56.30
780;DHT22;373;49.342;8.146;2022-07-15T14:44:38;26.20;56.40
780;DHT22;373;49.342;8.146;2022-07-15T14:47:07;26.60;56.60
780;DHT22;373;49.342;8.146;2022-07-15T14:49:35;26.40;55.50
780;DHT22;373;49.342;8.146;2022-07-15T14:52:04;26.00;55.60
780;DHT22;373;49.342;8.146;2022-07-15T14:54:31;25.70;56.70
780;DHT22;373;49.342;8.146;2022-07-15T14:56:58;25.70;56.70
780;DHT22;373;49.342;8.146;2022-07-15T14:59:25;26.00;56.40
780;DHT22;373;49.342;8.146;2022-07-15T15:01:52;26.10;55.50
780;DHT22;373;49.342;8.146;2022-07-15T15:04:20;25.90;55.60
780;DHT22;373;49.342;8.146;2022-07-15T15:06:48;26.30;56.60
780;DHT22;373;49.342;8.146;2022-07-15T15:09:16;26.40;54.90
780;DHT22;373;49.342;8.146;2022-07-15T15:11:44;26.40;54.80
780;DHT22;373;49.342;8.146;2022-07-15T15:14:11;26.30;55.30
780;DHT22;373;49.342;8.146;2022-07-15T15:16:38;26.20;55.10
780;DHT22;373;49.342;8.146;2022-07-15T15:19:05;25.90;54.80
780;DHT22;373;49.342;8.146;2022-07-15T15:21:32;25.80;55.30
780;DHT22;373;49.342;8.146;2022-07-15T15:24:00;25.70;55.50
780;DHT22;373;49.342;8.146;2022-07-15T15:26:29;26.10;55.50
780;DHT22;373;49.342;8.146;2022-07-15T15:28:57;26.10;55.10
780;DHT22;373;49.342;8.146;2022-07-15T15:31:25;26.10;54.10
780;DHT22;373;49.342;8.146;2022-07-15T15:33:52;26.10;54.50
780;DHT22;373;49.342;8.146;2022-07-15T15:36:19;26.30;53.90
780;DHT22;373;49.342;8.146;2022-07-15T15:38:47;26.20;53.70
780;DHT22;373;49.342;8.146;2022-07-15T15:41:14;26.10;53.90
780;DHT22;373;49.342;8.146;2022-07-15T15:43:43;26.20;54.00
780;DHT22;373;49.342;8.146;2022-07-15T15:46:10;26.20;53.70
780;DHT22;373;49.342;8.146;2022-07-15T15:48:37;26.10;54.00
780;DHT22;373;49.342;8.146;2022-07-15T15:51:04;26.10;53.80
780;DHT22;373;49.342;8.146;2022-07-15T15:53:31;26.10;53.50
780;DHT22;373;49.342;8.146;2022-07-15T15:55:58;26.30;54.30
780;DHT22;373;49.342;8.146;2022-07-15T15:58:25;26.50;53.00
780;DHT22;373;49.342;8.146;2022-07-15T16:00:54;26.30;52.60
780;DHT22;373;49.342;8.146;2022-07-15T16:03:21;26.20;52.70
780;DHT22;373;49.342;8.146;2022-07-15T16:05:49;25.90;52.80
780;DHT22;373;49.342;8.146;2022-07-15T16:08:16;25.60;53.40
780;DHT22;373;49.342;8.146;2022-07-15T16:10:43;25.70;53.70
780;DHT22;373;49.342;8.146;2022-07-15T16:13:10;25.70;53.60
780;DHT22;373;49.342;8.146;2022-07-15T16:15:38;25.90;53.50
780;DHT22;373;49.342;8.146;2022-07-15T16:18:06;26.00;52.90
780;DHT22;373;49.342;8.146;2022-07-15T16:20:34;25.70;52.70
780;DHT22;373;49.342;8.146;2022-07-15T16:23:01;25.70;52.90
780;DHT22;373;49.342;8.146;2022-07-15T16:25:31;25.90;53.40
780;DHT22;373;49.342;8.146;2022-07-15T16:28:02;25.70;52.60
780;DHT22;373;49.342;8.146;2022-07-15T16:30:30;25.60;53.00
780;DHT22;373;49.342;8.146;2022-07-15T16:32:57;25.50;53.00
780;DHT22;373;49.342;8.146;2022-07-15T16:35:28;25.50;52.90
780;DHT22;373;49.342;8.146;2022-07-15T16:37:56;25.60;53.60
780;DHT22;373;49.342;8.146;2022-07-15T16:40:24;25.70;53.00
780;DHT22;373;49.342;8.146;2022-07-15T16:42:52;25.70;52.90
780;DHT22;373;49.342;8.146;2022-07-15T16:45:19;25.50;52.80
780;DHT22;373;49.342;8.146;2022-07-15T16:47:46;25.20;53.30
780;DHT22;373;49.342;8.146;2022-07-15T16:50:14;25.30;53.70
780;DHT22;373;49.342;8.146;2022-07-15T16:52:44;25.40;53.50
780;DHT22;373;49.342;8.146;2022-07-15T16:55:11;25.30;53.70
780;DHT22;373;49.342;8.146;2022-07-15T16:57:39;25.40;53.50
780;DHT22;373;49.342;8.146;2022-07-15T17:00:08;25.40;53.50
780;DHT22;373;49.342;8.146;2022-07-15T17:02:36;25.50;53.50